Time;durP1;ratioP1;P1;durP2;ratioP2;P2;SDS_P1;SDS_P2;PMS_P1;PMS_P2;Temp;Humidity;BMP_temperature;BMP_pressure;BME280_temperature;BME280_humidity;BME280_pressure;Samples;Min_cycle;Max_cycle;Signal;HPM_P1;HPM_P2
2021/01/27 00:03:29;;;;;;;;;;;1.80;99.90;;;-1.14;80.27;95954.63;10570542;28;2020;-84
2021/01/27 00:08:30;;;;;;;;;;;-0.10;99.90;;;-1.13;78.80;95950.97;10556479;28;2106;-84
2021/01/27 00:13:32;;;;;;;;;;;-0.10;99.90;;;-1.11;79.95;95954.22;10557766;28;2228;-83
2021/01/27 00:18:34;;;;;;;;;;;1.00;99.90;;;-1.07;79.34;95951.19;10552206;28;1984;-84
2021/01/27 00:23:36;;;;;;;;;;;0.00;99.90;;;-1.05;79.62;95942.06;10549622;28;2145;-83
2021/01/27 00:28:38;;;;;;;;;;;1.50;99.90;;;-1.06;79.02;95935.16;10561153;28;2343;-83
2021/01/27 00:33:40;;;;;;;;;;;0.00;99.90;;;-1.06;78.35;95929.88;10577536;28;2271;-83
2021/01/27 00:38:42;;;;;;;;;;;1.90;99.90;;;-1.06;79.68;95926.44;10582668;28;2397;-82
2021/01/27 00:43:44;;;;;;;;;;;0.00;99.90;;;-1.03;79.29;95918.09;10553362;28;2176;-86
2021/01/27 00:48:48;;;;;;;;;;;0.00;99.90;;;-1.05;79.94;95910.41;10583159;28;1771;-80
2021/01/27 00:53:50;;;;;;;;;;;0.00;99.90;;;-1.03;80.10;95912.84;10571256;28;2338;-83
2021/01/27 00:58:52;;;;;;;;;;;0.20;99.90;;;-1.09;77.46;95917.06;10562699;28;2185;-82
2021/01/27 01:03:54;;;;;;;;;;;0.00;99.90;;;-1.13;77.98;95919.31;10562294;28;2251;-82
2021/01/27 01:08:55;;;;;;;;;;;1.30;99.90;;;-1.17;79.02;95918.06;10580882;28;2228;-83
2021/01/27 01:13:57;;;;;;;;;;;0.10;99.90;;;-1.29;78.21;95914.34;10580180;28;2248;-80
2021/01/27 01:18:59;;;;;;;;;;;1.40;99.90;;;-1.41;79.34;95903.53;10549835;28;2242;-80
2021/01/27 01:24:04;;;;;;;;;;;0.70;99.90;;;-1.45;79.33;95906.78;10573083;28;2704;-81
2021/01/27 01:29:06;;;;;;;;;;;-0.30;99.90;;;-1.44;79.18;95911.84;10581577;28;2782;-82
2021/01/27 01:34:08;;;;;;;;;;;-0.30;99.90;;;-1.42;80.09;95903.75;10576207;28;2209;-82
2021/01/27 01:39:10;;;;;;;;;;;-0.30;99.90;;;-1.39;80.31;95890.19;10565917;28;2299;-81
2021/01/27 01:44:11;;;;;;;;;;;0.80;99.90;;;-1.37;79.80;95896.06;10565066;28;2268;-80
2021/01/27 01:49:13;;;;;;;;;;;0.10;99.90;;;-1.31;79.45;95887.38;10574368;28;2224;-80
2021/01/27 01:54:15;;;;;;;;;;;-0.30;99.90;;;-1.29;79.23;95872.16;10576760;28;2525;-81
2021/01/27 01:59:17;;;;;;;;;;;-0.20;99.90;;;-1.34;78.81;95855.28;10578000;28;2553;-82
2021/01/27 02:04:19;;;;;;;;;;;-0.20;99.90;;;-1.37;80.07;95859.16;10591333;28;2078;-79
2021/01/27 02:09:21;;;;;;;;;;;0.10;99.90;;;-1.31;79.15;95858.38;10568314;28;2132;-81
2021/01/27 02:14:23;;;;;;;;;;;-0.20;99.90;;;-1.28;79.33;95862.41;10560462;28;2217;-83
2021/01/27 02:19:25;;;;;;;;;;;-0.20;99.90;;;-1.28;79.54;95847.41;10552242;28;2124;-84
2021/01/27 02:24:26;;;;;;;;;;;1.80;99.90;;;-1.24;79.38;95843.38;10565917;28;2398;-83
2021/01/27 02:29:28;;;;;;;;;;;-0.20;99.90;;;-1.26;80.18;95845.41;10584860;28;2881;-82
2021/01/27 02:34:30;;;;;;;;;;;1.90;99.90;;;-1.28;79.67;95841.31;10561953;28;2355;-84
2021/01/27 02:39:32;;;;;;;;;;;0.10;99.90;;;-1.33;78.89;95834.03;10575554;28;2273;-84
2021/01/27 02:44:34;;;;;;;;;;;-0.20;99.90;;;-1.34;79.49;95831.56;10558801;28;2228;-84
2021/01/27 02:49:36;;;;;;;;;;;1.30;99.90;;;-1.36;79.02;95839.69;10576945;28;2157;-82
2021/01/27 02:54:38;;;;;;;;;;;1.50;99.90;;;-1.43;78.55;95828.28;10563547;28;1984;-83
2021/01/27 02:59:40;;;;;;;;;;;-0.30;99.90;;;-1.46;78.59;95831.34;10569138;28;2374;-82
2021/01/27 03:04:42;;;;;;;;;;;-0.30;99.90;;;-1.60;79.74;95824.38;10562527;28;2386;-82
2021/01/27 03:09:44;;;;;;;;;;;1.40;99.90;;;-1.74;79.39;95821.66;10561974;28;2200;-85
2021/01/27 03:14:46;;;;;;;;;;;-0.60;99.90;;;-1.94;79.66;95831.28;10584332;28;2262;-85
2021/01/27 03:19:48;;;;;;;;;;;-0.70;99.90;;;-2.06;80.76;95827.56;10573238;28;2208;-82
2021/01/27 03:24:50;;;;;;;;;;;-0.80;99.90;;;-2.22;81.28;95818.16;10583000;28;1223;-83
2021/01/27 03:29:52;;;;;;;;;;;0.10;99.90;;;-2.35;81.10;95818.91;10603885;28;1394;-86
2021/01/27 03:34:54;;;;;;;;;;;0.60;99.90;;;-2.36;80.33;95814.59;10561366;28;2374;-83
2021/01/27 03:39:56;;;;;;;;;;;-1.20;99.90;;;-2.42;80.08;95804.84;10565567;28;2461;-83
2021/01/27 03:44:57;;;;;;;;;;;-0.40;99.90;;;-2.48;79.77;95813.53;10547687;28;2331;-85
2021/01/27 03:49:59;;;;;;;;;;;-1.30;99.90;;;-2.56;79.98;95814.47;10544419;28;2439;-83
2021/01/27 03:55:03;;;;;;;;;;;-0.50;99.90;;;-2.61;80.32;95808.16;10560800;28;2615;-83
2021/01/27 04:00:05;;;;;;;;;;;-1.40;99.90;;;-2.67;80.55;95814.16;10542009;28;2076;-83
2021/01/27 04:05:07;;;;;;;;;;;-0.20;99.90;;;-2.72;80.64;95817.38;10562463;28;2447;-85
2021/01/27 04:10:09;;;;;;;;;;;-1.50;99.90;;;-2.72;81.01;95814.75;10573175;28;1444;-87
2021/01/27 04:15:11;;;;;;;;;;;-1.60;99.90;;;-2.67;80.01;95803.63;10587065;28;1891;-84
2021/01/27 04:20:13;;;;;;;;;;;-0.10;99.90;;;-2.75;81.22;95791.44;10587201;28;2442;-82
2021/01/27 04:25:15;;;;;;;;;;;-1.60;99.90;;;-2.77;80.93;95789.00;10551275;28;2496;-85
2021/01/27 04:30:17;;;;;;;;;;;-1.70;99.90;;;-2.79;80.49;95795.47;10560015;28;2446;-84
2021/01/27 04:35:19;;;;;;;;;;;0.30;99.90;;;-2.79;80.86;95796.28;10586848;28;2545;-83
2021/01/27 04:40:21;;;;;;;;;;;-1.60;99.90;;;-2.75;80.37;95797.50;10565259;28;2433;-84
2021/01/27 04:45:23;;;;;;;;;;;-1.60;99.90;;;-2.71;80.06;95795.31;10578049;28;2458;-81
2021/01/27 04:50:25;;;;;;;;;;;-1.10;99.90;;;-2.68;80.43;95788.84;10585650;28;2425;-82
2021/01/27 04:55:27;;;;;;;;;;;-1.50;99.90;;;-2.72;80.32;95783.19;10574508;28;2398;-85
2021/01/27 05:00:29;;;;;;;;;;;-1.60;99.90;;;-2.67;79.57;95783.44;10576919;28;2124;-83
2021/01/27 05:05:31;;;;;;;;;;;-1.50;99.90;;;-2.67;78.33;95761.53;10567521;28;2109;-84
2021/01/27 05:10:33;;;;;;;;;;;-1.50;99.90;;;-2.69;78.82;95759.09;10572288;28;2489;-84
2021/01/27 05:15:35;;;;;;;;;;;0.00;99.90;;;-2.75;79.53;95752.78;10576638;28;2065;-83
2021/01/27 05:20:37;;;;;;;;;;;-1.60;99.90;;;-2.72;78.63;95756.88;10594716;28;1851;-85
2021/01/27 05:25:38;;;;;;;;;;;0.40;99.90;;;-2.72;79.52;95754.25;10595224;28;2244;-84
2021/01/27 05:30:40;;;;;;;;;;;-0.50;99.90;;;-2.75;80.15;95751.97;10575817;28;2385;-83
2021/01/27 05:35:42;;;;;;;;;;;-1.60;99.90;;;-2.75;80.15;95738.81;10556182;28;2054;-82
2021/01/27 05:40:44;;;;;;;;;;;0.00;99.90;;;-2.71;79.91;95729.56;10572424;28;1897;-83
2021/01/27 05:45:46;;;;;;;;;;;-1.60;99.90;;;-2.68;79.40;95736.22;10580573;28;1180;-84
2021/01/27 05:50:47;;;;;;;;;;;-1.50;99.90;;;-2.58;79.51;95724.38;10575185;28;1310;-85
2021/01/27 05:55:49;;;;;;;;;;;-1.50;99.90;;;-2.60;79.74;95721.13;10567112;28;2383;-82
2021/01/27 06:00:51;;;;;;;;;;;-1.50;99.90;;;-2.48;79.58;95713.50;10560611;28;2137;-83
2021/01/27 06:05:53;;;;;;;;;;;-1.20;99.90;;;-2.50;80.14;95707.59;10575039;28;1979;-84
2021/01/27 06:10:55;;;;;;;;;;;-0.20;99.90;;;-2.47;79.72;95694.06;10570528;28;2458;-84
2021/01/27 06:15:57;;;;;;;;;;;-1.40;99.90;;;-2.53;80.04;95700.94;10589299;28;2338;-85
2021/01/27 06:20:59;;;;;;;;;;;-1.40;99.90;;;-2.54;80.26;95701.94;10583801;28;2462;-84
2021/01/27 06:26:03;;;;;;;;;;;-1.40;99.90;;;-2.51;80.62;95700.72;10579460;28;2451;-84
2021/01/27 06:31:05;;;;;;;;;;;0.10;99.90;;;-2.50;80.29;95699.72;10578876;28;2060;-85
2021/01/27 06:36:07;;;;;;;;;;;-0.80;99.90;;;-2.46;79.53;95706.22;10618698;28;2252;-85
2021/01/27 06:41:09;;;;;;;;;;;-1.40;99.90;;;-2.39;79.16;95688.66;10589583;28;2009;-85
2021/01/27 06:46:11;;;;;;;;;;;-1.40;99.90;;;-2.32;78.92;95699.22;10551264;28;2084;-84
2021/01/27 06:51:13;;;;;;;;;;;-1.30;99.90;;;-2.33;79.09;95689.69;10570044;28;2447;-82
2021/01/27 06:56:14;;;;;;;;;;;-1.20;99.90;;;-2.28;78.61;95688.09;10559288;28;2358;-83
2021/01/27 07:01:17;;;;;;;;;;;-1.20;99.90;;;-2.25;78.15;95682.44;10571434;28;2058;-84
2021/01/27 07:06:19;;;;;;;;;;;0.00;99.90;;;-2.12;78.49;95675.59;10558364;28;2225;-85
2021/01/27 07:11:21;;;;;;;;;;;0.70;99.90;;;-1.98;76.49;95674.63;10572010;28;2513;-84
2021/01/27 07:16:23;;;;;;;;;;;-1.00;99.90;;;-1.95;76.54;95679.50;10579225;28;2458;-84
2021/01/27 07:21:25;;;;;;;;;;;-0.40;99.90;;;-1.84;75.68;95676.31;10593495;28;2545;-84
2021/01/27 07:26:28;;;;;;;;;;;-0.20;99.90;;;-1.79;74.99;95668.59;10567497;28;2100;-84
2021/01/27 07:31:33;;;;;;;;;;;0.20;99.90;;;-1.67;75.39;95669.63;10568840;28;2400;-83
2021/01/27 07:36:52;;;;;;;;;;;-0.30;99.90;;;-1.49;73.07;95655.06;10555495;28;1896;-82
2021/01/27 07:41:55;;;;;;;;;;;0.00;99.90;;;-1.48;73.66;95646.16;10577819;28;2622;-83
2021/01/27 07:46:57;;;;;;;;;;;-0.40;99.90;;;-1.37;72.07;95643.72;10549987;28;1846;-84
2021/01/27 07:51:59;;;;;;;;;;;1.30;99.90;;;-1.24;72.42;95642.94;10555425;28;2279;-83
2021/01/27 07:57:03;;;;;;;;;;;0.20;99.90;;;-1.13;71.21;95646.78;10579757;28;2302;-83
2021/01/27 08:02:05;;;;;;;;;;;0.10;99.90;;;-1.01;72.50;95639.88;10571893;28;2354;-83
2021/01/27 08:07:11;;;;;;;;;;;0.10;99.90;;;-0.99;71.89;95650.22;10558479;28;2150;-83
2021/01/27 08:12:13;;;;;;;;;;;0.10;99.90;;;-0.80;71.80;95641.47;10580986;28;2247;-81
2021/01/27 08:17:15;;;;;;;;;;;0.20;99.90;;;-0.59;70.04;95638.56;10578716;28;1890;-83
2021/01/27 08:22:20;;;;;;;;;;;1.50;99.90;;;-0.33;70.26;95642.16;10595751;28;1701;-85
2021/01/27 08:27:34;;;;;;;;;;;2.00;99.90;;;-0.11;69.71;95630.28;10550909;28;2259;-83
2021/01/27 08:32:36;;;;;;;;;;;0.90;99.90;;;0.10;68.70;95633.66;10565749;28;2358;-83
2021/01/27 08:37:38;;;;;;;;;;;1.00;99.90;;;0.52;68.96;95640.13;10572703;28;1971;-85
2021/01/27 08:42:40;;;;;;;;;;;1.40;99.90;;;0.70;65.88;95640.19;10551167;28;2291;-84
2021/01/27 08:47:42;;;;;;;;;;;1.60;99.90;;;0.81;66.62;95636.81;10562909;28;3264;-86
2021/01/27 08:53:02;;;;;;;;;;;1.80;99.90;;;1.09;66.66;95632.94;10573127;28;3013;-86
2021/01/27 08:58:06;;;;;;;;;;;2.60;99.90;;;1.28;66.65;95644.38;10552941;28;2315;-85
2021/01/27 09:03:10;;;;;;;;;;;3.00;99.90;;;1.38;65.25;95642.03;10457598;22;2251;-85
2021/01/27 09:08:14;;;;;;;;;;;2.30;99.90;;;1.80;63.67;95635.06;10396868;28;2441;-85
2021/01/27 09:13:19;;;;;;;;;;;2.80;99.90;;;2.02;63.63;95616.84;10401048;28;1540;-84
2021/01/27 09:18:21;;;;;;;;;;;2.90;99.90;;;1.99;64.72;95633.19;10377087;28;1953;-83
2021/01/27 09:23:24;;;;;;;;;;;3.50;99.90;;;2.08;63.58;95637.16;10378755;28;2246;-86
2021/01/27 09:28:26;;;;;;;;;;;4.40;99.00;;;2.25;63.36;95641.84;10387970;28;2317;-86
2021/01/27 09:33:32;;;;;;;;;;;3.10;97.80;;;2.25;60.79;95634.69;10403939;28;2425;-87
2021/01/27 09:38:34;;;;;;;;;;;3.30;94.70;;;2.39;61.52;95633.47;10380206;28;2275;-86
2021/01/27 09:43:36;;;;;;;;;;;5.30;97.70;;;2.57;62.42;95640.59;10376304;28;1841;-86
2021/01/27 09:48:38;;;;;;;;;;;3.40;95.60;;;2.88;58.19;95620.13;10393903;28;2119;-85
2021/01/27 09:53:40;;;;;;;;;;;3.80;92.80;;;2.95;57.41;95631.44;10405710;28;1940;-84
2021/01/27 09:58:42;;;;;;;;;;;5.10;91.30;;;3.06;58.81;95619.22;10395703;28;2161;-83
2021/01/27 10:03:45;;;;;;;;;;;4.00;89.30;;;3.47;58.39;95597.81;10386640;28;2119;-86
2021/01/27 10:08:46;;;;;;;;;;;4.10;89.60;;;3.79;55.78;95592.91;10364212;28;2301;-85
2021/01/27 10:13:55;;;;;;;;;;;4.50;88.80;;;3.90;57.17;95604.56;10383413;28;2356;-84
2021/01/27 10:18:59;;;;;;;;;;;5.50;88.70;;;3.53;55.99;95607.53;10388789;28;2956;-85
2021/01/27 10:24:10;;;;;;;;;;;4.50;85.10;;;3.56;55.49;95605.44;10362738;28;1848;-85
2021/01/27 10:29:15;;;;;;;;;;;4.40;85.20;;;3.56;57.40;95611.53;10348273;28;2317;-84
2021/01/27 10:34:22;;;;;;;;;;;6.30;87.60;;;3.67;56.02;95608.06;10361152;28;2216;-84
2021/01/27 10:39:24;;;;;;;;;;;4.40;85.80;;;3.78;54.84;95599.28;10373479;28;1985;-83
2021/01/27 10:44:27;;;;;;;;;;;4.40;84.40;;;3.99;53.88;95586.38;10400930;28;1286;-83
2021/01/27 10:49:29;;;;;;;;;;;4.70;83.00;;;4.18;56.28;95587.81;10365897;28;2376;-83
2021/01/27 10:54:33;;;;;;;;;;;5.00;84.40;;;4.49;52.25;95581.19;10388155;28;2076;-84
2021/01/27 10:59:35;;;;;;;;;;;6.40;82.30;;;4.38;53.14;95579.38;10391118;28;2381;-85
2021/01/27 11:04:37;;;;;;;;;;;5.20;82.70;;;4.02;52.52;95583.25;10412878;28;2052;-84
2021/01/27 11:09:39;;;;;;;;;;;5.10;80.50;;;4.02;53.97;95578.75;10413383;28;1799;-85
2021/01/27 11:14:41;;;;;;;;;;;4.90;80.80;;;4.05;52.25;95574.78;10401732;28;2217;-85
2021/01/27 11:19:43;;;;;;;;;;;4.80;79.90;;;3.74;50.70;95584.81;10373641;28;2309;-86
2021/01/27 11:24:51;;;;;;;;;;;4.70;77.80;;;3.07;53.93;95583.66;10379857;28;1984;-84
2021/01/27 11:30:04;;;;;;;;;;;4.20;77.80;;;2.66;53.52;95586.13;10394097;28;1924;-85
2021/01/27 11:35:06;;;;;;;;;;;5.30;78.80;;;2.69;56.41;95571.63;10379751;28;2290;-86
2021/01/27 11:40:11;;;;;;;;;;;5.00;81.50;;;2.43;54.36;95564.88;10396043;28;1962;-85
2021/01/27 11:45:14;;;;;;;;;;;5.00;80.50;;;2.58;57.46;95565.25;10383156;28;2306;-83
2021/01/27 11:50:17;;;;;;;;;;;4.10;82.80;;;2.54;56.83;95561.41;10398465;28;2344;-83
2021/01/27 11:55:19;;;;;;;;;;;4.20;82.60;;;2.24;55.32;95563.31;10376261;28;2102;-84
2021/01/27 12:00:22;;;;;;;;;;;4.20;81.40;;;2.13;57.57;95555.09;10399915;28;2060;-84
2021/01/27 12:05:29;;;;;;;;;;;3.40;82.50;;;1.80;59.19;95544.16;10382813;28;2248;-85
2021/01/27 12:10:33;;;;;;;;;;;2.70;83.90;;;1.80;59.80;95555.56;10394443;28;1872;-85
2021/01/27 12:15:36;;;;;;;;;;;3.40;85.50;;;1.62;61.00;95547.63;10370642;28;2393;-84
2021/01/27 12:20:39;;;;;;;;;;;2.30;85.30;;;1.63;61.97;95542.09;10389871;28;2317;-86
2021/01/27 12:25:41;;;;;;;;;;;2.60;87.10;;;1.77;62.21;95545.38;10397601;28;2029;-85
2021/01/27 12:30:43;;;;;;;;;;;3.50;87.50;;;1.65;60.27;95547.16;10381955;28;2340;-86
2021/01/27 12:35:46;;;;;;;;;;;2.90;86.40;;;1.38;61.82;95546.69;10389062;28;2222;-84
2021/01/27 12:40:49;;;;;;;;;;;2.20;86.90;;;1.31;62.11;95553.91;10393506;28;2032;-85
2021/01/27 12:45:51;;;;;;;;;;;3.60;88.60;;;1.13;63.82;95546.75;10370150;28;2335;-83
2021/01/27 12:50:53;;;;;;;;;;;3.10;90.00;;;1.07;68.23;95542.34;10378689;28;2457;-83
2021/01/27 12:55:58;;;;;;;;;;;2.00;93.10;;;1.43;67.14;95541.53;10399980;28;2357;-85
2021/01/27 13:01:00;;;;;;;;;;;2.20;93.80;;;1.75;66.71;95536.06;10398952;28;2182;-83
2021/01/27 13:06:05;;;;;;;;;;;2.60;94.40;;;1.83;67.53;95539.19;10417573;28;2474;-82
2021/01/27 13:11:08;;;;;;;;;;;3.00;93.70;;;2.03;65.82;95532.81;10427213;28;2163;-83
2021/01/27 13:16:12;;;;;;;;;;;5.00;94.00;;;2.03;65.25;95538.09;10420854;28;1886;-85
2021/01/27 13:21:18;;;;;;;;;;;4.10;92.40;;;2.23;67.28;95516.59;10409282;28;1836;-84
2021/01/27 13:26:23;;;;;;;;;;;3.00;94.00;;;2.35;65.65;95501.50;10412548;28;2379;-85
2021/01/27 13:31:27;;;;;;;;;;;3.20;93.80;;;2.25;67.86;95504.75;10391803;28;2305;-85
2021/01/27 13:36:32;;;;;;;;;;;3.50;95.00;;;2.00;69.99;95489.00;10400702;28;2266;-83
2021/01/27 13:41:35;;;;;;;;;;;3.60;97.00;;;1.92;71.75;95497.28;10405543;28;2015;-83
2021/01/27 13:46:37;;;;;;;;;;;4.50;99.10;;;1.70;72.32;95496.16;10411606;28;2278;-86
2021/01/27 13:51:39;;;;;;;;;;;2.80;99.80;;;1.66;74.00;95493.16;10403818;28;2568;-85
2021/01/27 13:56:44;;;;;;;;;;;2.60;99.90;;;1.52;75.14;95492.50;10382585;28;2356;-85
2021/01/27 14:01:47;;;;;;;;;;;2.80;99.90;;;1.15;76.49;95478.53;10396396;28;2396;-86
2021/01/27 14:06:49;;;;;;;;;;;2.30;99.90;;;0.73;78.23;95470.44;10387715;28;1996;-85
2021/01/27 14:11:51;;;;;;;;;;;2.90;99.90;;;0.71;77.88;95456.63;10411564;28;2332;-83
2021/01/27 14:16:53;;;;;;;;;;;1.90;99.90;;;0.70;79.37;95456.81;10418475;28;1894;-84
2021/01/27 14:21:55;;;;;;;;;;;1.70;99.90;;;0.50;81.02;95449.88;10416119;28;1984;-84
2021/01/27 14:26:57;;;;;;;;;;;3.40;99.90;;;0.34;80.61;95450.47;10420930;28;1983;-85
2021/01/27 14:32:00;;;;;;;;;;;1.50;99.90;;;0.40;81.75;95446.94;10417719;28;2403;-84
2021/01/27 14:37:05;;;;;;;;;;;2.20;99.90;;;0.31;81.48;95448.25;10414918;28;1965;-83
2021/01/27 14:42:07;;;;;;;;;;;1.30;99.90;;;0.08;81.96;95443.56;10401140;28;1437;-86
2021/01/27 14:47:12;;;;;;;;;;;2.40;99.90;;;0.07;82.62;95444.59;10394385;28;1871;-86
2021/01/27 14:52:14;;;;;;;;;;;1.20;99.90;;;0.01;83.59;95440.19;10379201;28;2450;-83
2021/01/27 14:57:18;;;;;;;;;;;2.80;99.90;;;-0.04;84.16;95438.19;10398134;28;2364;-86
2021/01/27 15:02:22;;;;;;;;;;;1.10;99.90;;;-0.14;83.04;95437.84;10377541;28;1946;-84
2021/01/27 15:07:23;;;;;;;;;;;1.00;99.90;;;-0.31;83.51;95423.56;10395706;28;2218;-85
2021/01/27 15:12:25;;;;;;;;;;;0.80;99.90;;;-0.41;84.30;95439.06;10377073;28;2175;-85
2021/01/27 15:17:28;;;;;;;;;;;0.70;99.90;;;-0.49;83.87;95428.75;10391030;28;2341;-85
2021/01/27 15:22:31;;;;;;;;;;;1.90;99.90;;;-0.46;84.62;95420.38;10386441;28;2246;-84
2021/01/27 15:27:34;;;;;;;;;;;0.60;99.90;;;-0.39;84.56;95429.06;10366641;28;2185;-84
2021/01/27 15:32:50;;;;;;;;;;;2.20;99.90;;;-0.39;83.24;95410.59;10385406;28;2340;-88
2021/01/27 15:37:52;;;;;;;;;;;1.20;99.90;;;-0.42;83.69;95409.19;10418387;28;2237;-86
2021/01/27 15:42:54;;;;;;;;;;;0.70;99.90;;;-0.32;83.37;95413.97;10402594;28;2383;-83
2021/01/27 15:47:56;;;;;;;;;;;1.00;99.90;;;-0.35;83.66;95402.03;10371801;28;2210;-86
2021/01/27 15:52:58;;;;;;;;;;;0.80;99.90;;;-0.31;84.66;95405.06;10395305;28;1948;-86
2021/01/27 15:58:00;;;;;;;;;;;1.80;99.90;;;-0.31;84.16;95403.22;10370914;28;2353;-81
2021/01/27 16:03:05;;;;;;;;;;;1.80;99.90;;;-0.33;83.78;95401.81;10394111;28;2329;-84
2021/01/27 16:08:10;;;;;;;;;;;0.80;99.90;;;-0.38;84.69;95394.56;10373770;28;1928;-83
2021/01/27 16:13:16;;;;;;;;;;;0.70;99.90;;;-0.38;84.38;95399.00;10365253;28;2182;-84
2021/01/27 16:18:43;;;;;;;;;;;0.60;99.90;;;-0.33;84.49;95396.53;10385801;28;1983;-87
2021/01/27 16:23:45;;;;;;;;;;;0.70;99.90;;;-0.34;84.55;95394.91;10387033;28;2047;-86
2021/01/27 16:28:48;;;;;;;;;;;1.90;99.90;;;-0.31;83.52;95394.50;10404155;28;1604;-86
2021/01/27 16:33:52;;;;;;;;;;;1.60;99.90;;;-0.30;85.24;95393.47;10398017;28;2725;-86
2021/01/27 16:38:56;;;;;;;;;;;0.80;99.90;;;-0.28;84.77;95379.00;10382341;28;1979;-85
2021/01/27 16:44:00;;;;;;;;;;;0.70;99.90;;;-0.28;84.74;95378.22;10387548;28;1348;-86
2021/01/27 16:49:05;;;;;;;;;;;0.80;99.90;;;-0.30;84.73;95374.97;10386580;28;2242;-85
2021/01/27 16:54:07;;;;;;;;;;;2.70;99.90;;;-0.27;84.72;95379.81;10397131;28;2230;-85
2021/01/27 16:59:09;;;;;;;;;;;2.50;99.90;;;-0.28;84.41;95378.22;10385540;28;1944;-86
2021/01/27 17:04:11;;;;;;;;;;;0.80;99.90;;;-0.26;84.32;95368.22;10388940;28;1930;-85
2021/01/27 17:09:16;;;;;;;;;;;1.90;99.90;;;-0.24;84.51;95354.81;10403190;28;1775;-84
2021/01/27 17:14:18;;;;;;;;;;;1.90;99.90;;;-0.27;84.30;95385.09;10377379;28;2069;-83
2021/01/27 17:19:21;;;;;;;;;;;1.50;99.90;;;-0.22;84.92;95369.41;10392545;28;1886;-85
2021/01/27 17:24:23;;;;;;;;;;;2.20;99.90;;;-0.21;84.31;95373.69;10408286;28;2233;-86
2021/01/27 17:29:27;;;;;;;;;;;0.90;99.90;;;-0.18;83.83;95367.16;10385557;28;2357;-84
2021/01/27 17:34:32;;;;;;;;;;;1.50;99.90;;;-0.20;84.38;95364.72;10410855;28;1849;-84
2021/01/27 17:39:34;;;;;;;;;;;1.50;99.90;;;-0.17;84.28;95372.22;10411801;28;2367;-85
2021/01/27 17:44:36;;;;;;;;;;;1.20;99.90;;;-0.21;83.89;95378.97;10415735;28;1545;-84
2021/01/27 17:49:44;;;;;;;;;;;2.80;99.90;;;-0.16;84.74;95380.97;10385298;28;2373;-84
2021/01/27 17:54:50;;;;;;;;;;;2.10;99.90;;;-0.17;84.96;95380.16;10404198;28;2176;-88
2021/01/27 17:59:52;;;;;;;;;;;2.60;99.90;;;-0.17;85.49;95374.06;10396945;28;2080;-87
2021/01/27 18:04:54;;;;;;;;;;;1.60;99.90;;;-0.17;86.08;95377.50;10434192;28;1251;-86
2021/01/27 18:09:56;;;;;;;;;;;2.00;99.90;;;-0.19;85.69;95384.84;10419056;28;1398;-84
2021/01/27 18:14:58;;;;;;;;;;;1.40;99.90;;;-0.19;86.26;95392.78;10417665;28;1283;-86
2021/01/27 18:20:04;;;;;;;;;;;1.20;99.90;;;-0.21;86.36;95394.00;10406028;28;1977;-86
2021/01/27 18:25:06;;;;;;;;;;;0.80;99.90;;;-0.21;86.26;95394.81;10417751;28;2463;-84
2021/01/27 18:30:08;;;;;;;;;;;2.40;99.90;;;-0.27;87.33;95390.38;10390997;28;2241;-83
2021/01/27 18:35:17;;;;;;;;;;;1.70;99.90;;;-0.24;87.90;95397.91;10383979;28;2159;-86
2021/01/27 18:40:28;;;;;;;;;;;2.50;99.90;;;-0.26;88.56;95392.00;10384809;28;2353;-84
2021/01/27 18:45:30;;;;;;;;;;;2.20;99.90;;;-0.27;88.90;95395.66;10417351;28;2263;-84
2021/01/27 18:50:32;;;;;;;;;;;1.30;99.90;;;-0.26;89.89;95392.00;10396592;28;2257;-86
2021/01/27 18:55:34;;;;;;;;;;;2.60;99.90;;;-0.25;90.18;95388.34;10404033;28;1267;-85
2021/01/27 19:00:36;;;;;;;;;;;1.60;99.90;;;-0.29;90.64;95392.44;10383028;28;2315;-84
2021/01/27 19:05:39;;;;;;;;;;;0.70;99.90;;;-0.27;90.86;95401.75;10406313;28;2397;-84
2021/01/27 19:10:43;;;;;;;;;;;2.30;99.90;;;-0.20;91.04;95408.81;10390633;28;1655;-87
2021/01/27 19:15:48;;;;;;;;;;;2.50;99.90;;;-0.22;91.29;95403.75;10391083;28;2097;-85
2021/01/27 19:21:05;;;;;;;;;;;2.50;99.90;;;-0.23;91.54;95396.88;10400219;28;2062;-86
2021/01/27 19:26:11;;;;;;;;;;;0.70;99.90;;;-0.24;91.98;95389.97;10401488;28;1695;-84
2021/01/27 19:31:22;;;;;;;;;;;0.80;99.90;;;-0.27;92.01;95400.94;10385089;28;1401;-84
2021/01/27 19:36:24;;;;;;;;;;;0.80;99.90;;;-0.28;92.09;95391.41;10376793;28;1981;-85
2021/01/27 19:41:26;;;;;;;;;;;0.70;99.90;;;-0.29;92.13;95390.59;10379497;28;1687;-84
2021/01/27 19:46:31;;;;;;;;;;;2.00;99.90;;;-0.27;92.37;95393.03;10399559;28;1430;-82
2021/01/27 19:51:34;;;;;;;;;;;2.70;99.90;;;-0.25;92.73;95388.34;10400039;28;1881;-85
2021/01/27 19:56:36;;;;;;;;;;;0.80;99.90;;;-0.21;92.41;95386.09;10365565;28;1910;-84
2021/01/27 20:01:38;;;;;;;;;;;1.50;99.90;;;-0.19;92.67;95384.03;10410027;28;1326;-85
2021/01/27 20:06:40;;;;;;;;;;;0.80;99.90;;;-0.21;92.19;95378.97;10397343;28;1519;-85
2021/01/27 20:11:42;;;;;;;;;;;0.90;99.90;;;-0.25;92.61;95387.53;10400104;28;1512;-87
2021/01/27 20:16:46;;;;;;;;;;;0.90;99.90;;;-0.29;92.83;95382.69;10367985;28;1918;-88
2021/01/27 20:21:54;;;;;;;;;;;2.60;99.90;;;-0.27;93.15;95385.91;10386594;28;1543;-87
2021/01/27 20:26:57;;;;;;;;;;;1.50;99.90;;;-0.24;93.06;95395.25;10374662;28;1589;-85
2021/01/27 20:31:59;;;;;;;;;;;2.00;99.90;;;-0.20;92.89;95396.41;10382607;28;1565;-85
2021/01/27 20:37:03;;;;;;;;;;;1.10;99.90;;;-0.17;93.42;95395.19;10375263;28;1918;-85
2021/01/27 20:42:05;;;;;;;;;;;0.90;99.90;;;-0.11;93.08;95408.34;10377131;28;1615;-87
2021/01/27 20:47:07;;;;;;;;;;;1.10;99.90;;;-0.04;93.34;95405.66;10369853;28;1281;-85
2021/01/27 20:52:09;;;;;;;;;;;2.80;99.90;;;-0.01;93.55;95416.59;10373182;28;1477;-85
2021/01/27 20:57:11;;;;;;;;;;;1.00;99.90;;;0.05;93.13;95414.13;10376815;28;1981;-84
2021/01/27 21:02:13;;;;;;;;;;;1.10;99.90;;;0.05;92.77;95411.47;10359753;28;1616;-86
2021/01/27 21:07:15;;;;;;;;;;;1.10;99.90;;;0.03;92.91;95418.81;10380463;28;1314;-87
2021/01/27 21:12:17;;;;;;;;;;;1.10;99.90;;;0.03;93.25;95418.81;10381508;28;1670;-87
2021/01/27 21:17:19;;;;;;;;;;;1.10;99.90;;;0.08;92.95;95422.44;10402198;28;1929;-85
2021/01/27 21:22:21;;;;;;;;;;;2.20;99.90;;;0.17;93.08;95425.59;10399338;28;1363;-86
2021/01/27 21:27:23;;;;;;;;;;;1.20;99.90;;;0.20;92.65;95425.19;10401045;28;1689;-86
2021/01/27 21:32:24;;;;;;;;;;;1.20;99.90;;;0.24;92.32;95429.78;10418452;28;1350;-85
2021/01/27 21:37:26;;;;;;;;;;;1.20;99.90;;;0.28;92.44;95424.91;10373091;28;1903;-87
2021/01/27 21:42:28;;;;;;;;;;;1.20;99.90;;;0.27;92.52;95423.28;10366372;28;2174;-87
2021/01/27 21:47:32;;;;;;;;;;;1.40;99.90;;;0.35;92.54;95424.81;10390584;28;2341;-85
2021/01/27 21:52:34;;;;;;;;;;;2.50;99.90;;;0.41;92.38;95419.47;10372262;28;2424;-86
2021/01/27 21:57:36;;;;;;;;;;;3.20;99.90;;;0.45;92.40;95419.88;10382327;28;2214;-85
2021/01/27 22:02:38;;;;;;;;;;;1.40;99.90;;;0.46;92.02;95417.00;10370389;28;2293;-85
2021/01/27 22:07:40;;;;;;;;;;;1.50;99.90;;;0.51;91.99;95424.28;10367547;28;2718;-85
2021/01/27 22:12:42;;;;;;;;;;;2.40;99.90;;;0.48;92.12;95446.66;10374365;28;2742;-86
2021/01/27 22:17:44;;;;;;;;;;;1.50;99.90;;;0.54;92.07;95437.03;10389734;28;2285;-85
2021/01/27 22:23:04;;;;;;;;;;;2.50;99.90;;;0.49;92.13;95445.63;10376388;28;2701;-83
2021/01/27 22:28:06;;;;;;;;;;;1.60;99.90;;;0.48;92.24;95446.66;10366750;28;2347;-84
2021/01/27 22:33:08;;;;;;;;;;;2.50;99.90;;;0.48;92.48;95441.38;10395232;28;2301;-83
2021/01/27 22:38:10;;;;;;;;;;;1.60;99.90;;;0.54;92.36;95440.50;10365713;28;2237;-86
2021/01/27 22:43:12;;;;;;;;;;;1.60;99.90;;;0.58;92.49;95434.78;10364804;28;2415;-84
2021/01/27 22:48:14;;;;;;;;;;;2.40;99.90;;;0.61;92.20;95439.63;10391093;28;2293;-85
2021/01/27 22:53:16;;;;;;;;;;;3.30;99.90;;;0.59;92.11;95439.03;10390884;28;2352;-84
2021/01/27 22:58:18;;;;;;;;;;;1.70;99.90;;;0.64;92.21;95431.25;10378801;28;1910;-85
2021/01/27 23:03:19;;;;;;;;;;;2.20;99.90;;;0.64;92.58;95423.31;10392786;28;1948;-85
2021/01/27 23:08:22;;;;;;;;;;;1.70;99.90;;;0.61;92.34;95408.69;10398969;28;2309;-85
2021/01/27 23:13:23;;;;;;;;;;;1.60;99.90;;;0.62;92.57;95412.13;10410856;28;2706;-85
2021/01/27 23:18:25;;;;;;;;;;;1.70;99.90;;;0.64;92.43;95410.91;10385571;28;1944;-86
2021/01/27 23:23:27;;;;;;;;;;;1.70;99.90;;;0.62;92.74;95406.84;10399281;28;2305;-85
2021/01/27 23:28:34;;;;;;;;;;;2.30;99.90;;;0.66;92.73;95402.75;10389500;28;2221;-86
2021/01/27 23:33:35;;;;;;;;;;;1.70;99.90;;;0.65;92.84;95407.22;10366723;28;2333;-85